sensor_id;sensor_type;location;lat;lon;timestamp;temperature;humidity
13944;DHT22;7044;53.286;8.534;2024-01-11T00:00:10;-4.50;99.90
13944;DHT22;7044;53.286;8.534;2024-01-11T00:05:06;-4.60;99.90
13944;DHT22;7044;53.286;8.534;2024-01-11T00:07:34;-4.50;99.90
13944;DHT22;7044;53.286;8.534;2024-01-11T00:10:01;-4.60;99.90
13944;DHT22;7044;53.286;8.534;2024-01-11T00:12:29;-4.40;99.90
13944;DHT22;7044;53.286;8.534;2024-01-11T00:14:57;-4.60;99.90
13944;DHT22;7044;53.286;8.534;2024-01-11T00:17:25;-4.60;99.90
13944;DHT22;7044;53.286;8.534;2024-01-11T00:19:51;-4.50;99.90
13944;DHT22;7044;53.286;8.534;2024-01-11T00:22:20;-4.50;99.90
13944;DHT22;7044;53.286;8.534;2024-01-11T00:24:47;-4.60;99.90
13944;DHT22;7044;53.286;8.534;2024-01-11T00:27:14;-4.50;99.90
13944;DHT22;7044;53.286;8.534;2024-01-11T00:29:40;-4.50;99.90
13944;DHT22;7044;53.286;8.534;2024-01-11T00:32:07;-4.50;99.90
13944;DHT22;7044;53.286;8.534;2024-01-11T00:34:34;-4.50;99.90
13944;DHT22;7044;53.286;8.534;2024-01-11T00:37:02;-4.50;99.90
13944;DHT22;7044;53.286;8.534;2024-01-11T00:39:30;-4.50;99.90
13944;DHT22;7044;53.286;8.534;2024-01-11T00:41:57;-4.50;99.90
13944;DHT22;7044;53.286;8.534;2024-01-11T00:44:24;-4.40;99.90
13944;DHT22;7044;53.286;8.534;2024-01-11T00:49:18;-5.30;99.90
13944;DHT22;7044;53.286;8.534;2024-01-11T00:51:45;-3.90;99.90
13944;DHT22;7044;53.286;8.534;2024-01-11T00:54:12;-4.60;99.90
13944;DHT22;7044;53.286;8.534;2024-01-11T00:56:40;-4.50;99.90
13944;DHT22;7044;53.286;8.534;2024-01-11T00:59:07;-3.90;99.90
13944;DHT22;7044;53.286;8.534;2024-01-11T01:04:01;-4.40;99.90
13944;DHT22;7044;53.286;8.534;2024-01-11T01:06:27;-4.40;99.90
13944;DHT22;7044;53.286;8.534;2024-01-11T01:08:55;-4.50;99.90
13944;DHT22;7044;53.286;8.534;2024-01-11T01:11:22;-4.50;99.90
13944;DHT22;7044;53.286;8.534;2024-01-11T01:13:50;-4.60;99.90
13944;DHT22;7044;53.286;8.534;2024-01-11T01:16:17;-4.60;99.90
13944;DHT22;7044;53.286;8.534;2024-01-11T01:18:44;-4.50;99.90
13944;DHT22;7044;53.286;8.534;2024-01-11T01:21:11;-4.40;99.90
13944;DHT22;7044;53.286;8.534;2024-01-11T01:23:38;-4.10;99.90
13944;DHT22;7044;53.286;8.534;2024-01-11T01:26:06;-4.60;99.90
13944;DHT22;7044;53.286;8.534;2024-01-11T01:28:33;-4.60;99.90
13944;DHT22;7044;53.286;8.534;2024-01-11T01:31:01;-3.00;99.90
13944;DHT22;7044;53.286;8.534;2024-01-11T01:33:28;-4.30;99.90
13944;DHT22;7044;53.286;8.534;2024-01-11T01:35:55;-4.20;99.90
13944;DHT22;7044;53.286;8.534;2024-01-11T01:38:22;-4.50;99.90
13944;DHT22;7044;53.286;8.534;2024-01-11T01:40:48;-4.50;99.90
13944;DHT22;7044;53.286;8.534;2024-01-11T01:43:15;-4.60;99.90
13944;DHT22;7044;53.286;8.534;2024-01-11T01:45:42;-4.50;99.90
13944;DHT22;7044;53.286;8.534;2024-01-11T01:48:11;-4.40;99.90
13944;DHT22;7044;53.286;8.534;2024-01-11T01:50:38;-4.60;99.90
13944;DHT22;7044;53.286;8.534;2024-01-11T01:53:05;-4.70;99.90
13944;DHT22;7044;53.286;8.534;2024-01-11T01:55:33;-4.70;99.90
13944;DHT22;7044;53.286;8.534;2024-01-11T01:58:00;-4.70;99.90
13944;DHT22;7044;53.286;8.534;2024-01-11T02:00:29;-4.60;99.90
13944;DHT22;7044;53.286;8.534;2024-01-11T02:02:56;-4.60;99.90
13944;DHT22;7044;53.286;8.534;2024-01-11T02:05:26;-4.70;99.90
13944;DHT22;7044;53.286;8.534;2024-01-11T02:07:53;-4.70;99.90
13944;DHT22;7044;53.286;8.534;2024-01-11T02:10:20;-4.60;99.90
13944;DHT22;7044;53.286;8.534;2024-01-11T02:12:47;-4.50;99.90
13944;DHT22;7044;53.286;8.534;2024-01-11T02:15:14;-4.80;99.90
13944;DHT22;7044;53.286;8.534;2024-01-11T02:17:41;-4.40;99.90
13944;DHT22;7044;53.286;8.534;2024-01-11T02:20:10;-4.50;99.90
13944;DHT22;7044;53.286;8.534;2024-01-11T02:22:40;-4.90;99.90
13944;DHT22;7044;53.286;8.534;2024-01-11T02:25:09;-4.60;99.90
13944;DHT22;7044;53.286;8.534;2024-01-11T02:27:45;-4.60;99.90
13944;DHT22;7044;53.286;8.534;2024-01-11T02:30:13;-4.70;99.90
13944;DHT22;7044;53.286;8.534;2024-01-11T02:32:41;-4.60;99.90
13944;DHT22;7044;53.286;8.534;2024-01-11T02:35:10;-4.70;99.90
13944;DHT22;7044;53.286;8.534;2024-01-11T02:37:37;-4.60;99.90
13944;DHT22;7044;53.286;8.534;2024-01-11T02:40:06;-4.60;99.90
13944;DHT22;7044;53.286;8.534;2024-01-11T02:42:35;-4.60;99.90
13944;DHT22;7044;53.286;8.534;2024-01-11T02:45:03;-4.50;99.90
13944;DHT22;7044;53.286;8.534;2024-01-11T02:47:30;-4.50;99.90
13944;DHT22;7044;53.286;8.534;2024-01-11T02:49:57;-4.60;99.90
13944;DHT22;7044;53.286;8.534;2024-01-11T02:52:24;-4.50;99.90
13944;DHT22;7044;53.286;8.534;2024-01-11T02:54:51;-4.60;99.90
13944;DHT22;7044;53.286;8.534;2024-01-11T02:57:18;-4.70;99.90
13944;DHT22;7044;53.286;8.534;2024-01-11T02:59:46;-5.60;99.90
13944;DHT22;7044;53.286;8.534;2024-01-11T03:02:13;-4.90;99.90
13944;DHT22;7044;53.286;8.534;2024-01-11T03:04:40;-4.50;99.90
13944;DHT22;7044;53.286;8.534;2024-01-11T03:07:07;-4.80;99.90
13944;DHT22;7044;53.286;8.534;2024-01-11T03:09:34;-4.50;99.90
13944;DHT22;7044;53.286;8.534;2024-01-11T03:12:00;-4.40;99.90
13944;DHT22;7044;53.286;8.534;2024-01-11T03:16:56;-4.50;99.90
13944;DHT22;7044;53.286;8.534;2024-01-11T03:19:23;-4.20;99.90
13944;DHT22;7044;53.286;8.534;2024-01-11T03:21:50;-4.40;99.90
13944;DHT22;7044;53.286;8.534;2024-01-11T03:24:16;-3.80;99.90
13944;DHT22;7044;53.286;8.534;2024-01-11T03:26:43;-5.40;99.90
13944;DHT22;7044;53.286;8.534;2024-01-11T03:29:10;-4.30;99.90
13944;DHT22;7044;53.286;8.534;2024-01-11T03:31:37;-4.20;99.90
13944;DHT22;7044;53.286;8.534;2024-01-11T03:34:08;-4.10;99.90
13944;DHT22;7044;53.286;8.534;2024-01-11T03:36:35;-4.30;99.90
13944;DHT22;7044;53.286;8.534;2024-01-11T03:39:02;-4.10;99.90
13944;DHT22;7044;53.286;8.534;2024-01-11T03:41:29;-3.90;99.90
13944;DHT22;7044;53.286;8.534;2024-01-11T03:43:56;-4.00;99.90
13944;DHT22;7044;53.286;8.534;2024-01-11T03:48:50;-4.10;99.90
13944;DHT22;7044;53.286;8.534;2024-01-11T03:51:18;-4.00;99.90
13944;DHT22;7044;53.286;8.534;2024-01-11T03:53:45;-3.40;99.90
13944;DHT22;7044;53.286;8.534;2024-01-11T03:56:12;-4.00;99.90
13944;DHT22;7044;53.286;8.534;2024-01-11T03:58:39;-4.60;99.90
13944;DHT22;7044;53.286;8.534;2024-01-11T04:01:07;-3.80;99.90
13944;DHT22;7044;53.286;8.534;2024-01-11T04:03:36;-3.50;99.90
13944;DHT22;7044;53.286;8.534;2024-01-11T04:06:03;-3.60;99.90
13944;DHT22;7044;53.286;8.534;2024-01-11T04:08:32;-3.70;99.90
13944;DHT22;7044;53.286;8.534;2024-01-11T04:11:01;-3.80;99.90
13944;DHT22;7044;53.286;8.534;2024-01-11T04:13:29;-3.70;99.90
13944;DHT22;7044;53.286;8.534;2024-01-11T04:15:56;-3.80;99.90
13944;DHT22;7044;53.286;8.534;2024-01-11T04:18:23;-3.70;99.90
13944;DHT22;7044;53.286;8.534;2024-01-11T04:20:50;-3.90;99.90
13944;DHT22;7044;53.286;8.534;2024-01-11T04:23:16;-3.80;99.90
13944;DHT22;7044;53.286;8.534;2024-01-11T04:25:45;-3.80;99.90
13944;DHT22;7044;53.286;8.534;2024-01-11T04:28:12;-3.80;99.90
13944;DHT22;7044;53.286;8.534;2024-01-11T04:33:06;-3.70;99.90
13944;DHT22;7044;53.286;8.534;2024-01-11T04:35:33;-3.70;99.90
13944;DHT22;7044;53.286;8.534;2024-01-11T04:37:59;-3.80;99.90
13944;DHT22;7044;53.286;8.534;2024-01-11T04:40:26;-3.60;99.90
13944;DHT22;7044;53.286;8.534;2024-01-11T04:42:54;-3.80;99.90
13944;DHT22;7044;53.286;8.534;2024-01-11T04:45:21;-3.80;99.90
13944;DHT22;7044;53.286;8.534;2024-01-11T04:47:50;-3.80;99.90
13944;DHT22;7044;53.286;8.534;2024-01-11T04:50:17;-3.70;99.90
13944;DHT22;7044;53.286;8.534;2024-01-11T04:52:44;-3.70;99.90
13944;DHT22;7044;53.286;8.534;2024-01-11T04:55:10;-4.10;99.90
13944;DHT22;7044;53.286;8.534;2024-01-11T05:00:07;-3.70;99.90
13944;DHT22;7044;53.286;8.534;2024-01-11T05:02:34;-3.50;99.90
13944;DHT22;7044;53.286;8.534;2024-01-11T05:05:01;-3.70;99.90
13944;DHT22;7044;53.286;8.534;2024-01-11T05:07:28;-3.60;99.90
13944;DHT22;7044;53.286;8.534;2024-01-11T05:09:55;-3.60;99.90
13944;DHT22;7044;53.286;8.534;2024-01-11T05:12:22;-3.60;99.90
13944;DHT22;7044;53.286;8.534;2024-01-11T05:17:17;-3.60;99.90
13944;DHT22;7044;53.286;8.534;2024-01-11T05:19:44;-3.40;99.90
13944;DHT22;7044;53.286;8.534;2024-01-11T05:22:11;-3.60;99.90
13944;DHT22;7044;53.286;8.534;2024-01-11T05:24:38;-3.40;99.90
13944;DHT22;7044;53.286;8.534;2024-01-11T05:27:05;-3.40;99.90
13944;DHT22;7044;53.286;8.534;2024-01-11T05:29:31;-3.40;99.90
13944;DHT22;7044;53.286;8.534;2024-01-11T05:31:58;-2.60;99.90
13944;DHT22;7044;53.286;8.534;2024-01-11T05:34:26;-3.20;99.90
13944;DHT22;7044;53.286;8.534;2024-01-11T05:36:53;-3.20;99.90
13944;DHT22;7044;53.286;8.534;2024-01-11T05:39:20;-3.20;99.90
13944;DHT22;7044;53.286;8.534;2024-01-11T05:41:47;-3.30;99.90
13944;DHT22;7044;53.286;8.534;2024-01-11T05:44:14;-3.20;99.90
13944;DHT22;7044;53.286;8.534;2024-01-11T05:49:08;-3.10;99.90
13944;DHT22;7044;53.286;8.534;2024-01-11T05:51:36;-3.10;99.90
13944;DHT22;7044;53.286;8.534;2024-01-11T05:54:03;-2.80;99.90
13944;DHT22;7044;53.286;8.534;2024-01-11T05:56:30;-3.10;99.90
13944;DHT22;7044;53.286;8.534;2024-01-11T05:58:58;-3.10;99.90
13944;DHT22;7044;53.286;8.534;2024-01-11T06:01:25;-3.10;99.90
13944;DHT22;7044;53.286;8.534;2024-01-11T06:03:52;-2.80;99.90
13944;DHT22;7044;53.286;8.534;2024-01-11T06:06:19;-2.90;99.90
13944;DHT22;7044;53.286;8.534;2024-01-11T06:08:47;-2.60;99.90
13944;DHT22;7044;53.286;8.534;2024-01-11T06:11:14;-2.40;99.90
13944;DHT22;7044;53.286;8.534;2024-01-11T06:13:43;-2.60;99.90
13944;DHT22;7044;53.286;8.534;2024-01-11T06:16:10;-2.70;99.90
13944;DHT22;7044;53.286;8.534;2024-01-11T06:21:04;-2.90;99.90
13944;DHT22;7044;53.286;8.534;2024-01-11T06:23:31;-2.80;99.90
13944;DHT22;7044;53.286;8.534;2024-01-11T06:25:59;-2.80;99.90
13944;DHT22;7044;53.286;8.534;2024-01-11T06:28:26;-2.70;99.90
13944;DHT22;7044;53.286;8.534;2024-01-11T06:30:53;-2.80;99.90
13944;DHT22;7044;53.286;8.534;2024-01-11T06:33:20;-2.80;99.90
13944;DHT22;7044;53.286;8.534;2024-01-11T06:35:47;-2.80;99.90
13944;DHT22;7044;53.286;8.534;2024-01-11T06:38:13;-2.90;99.90
13944;DHT22;7044;53.286;8.534;2024-01-11T06:40:40;-3.00;99.90
13944;DHT22;7044;53.286;8.534;2024-01-11T06:43:10;-2.90;99.90
13944;DHT22;7044;53.286;8.534;2024-01-11T06:45:36;-2.80;99.90
13944;DHT22;7044;53.286;8.534;2024-01-11T06:48:05;-2.90;99.90
13944;DHT22;7044;53.286;8.534;2024-01-11T06:50:32;-2.90;99.90
13944;DHT22;7044;53.286;8.534;2024-01-11T06:52:59;-3.20;99.90
13944;DHT22;7044;53.286;8.534;2024-01-11T06:55:26;-2.70;99.90
13944;DHT22;7044;53.286;8.534;2024-01-11T06:57:53;-2.30;99.90
13944;DHT22;7044;53.286;8.534;2024-01-11T07:00:21;-2.70;99.90
13944;DHT22;7044;53.286;8.534;2024-01-11T07:02:48;-2.70;99.90
13944;DHT22;7044;53.286;8.534;2024-01-11T07:05:15;-2.80;99.90
13944;DHT22;7044;53.286;8.534;2024-01-11T07:07:42;-2.60;99.90
13944;DHT22;7044;53.286;8.534;2024-01-11T07:10:09;-2.70;99.90
13944;DHT22;7044;53.286;8.534;2024-01-11T07:12:38;-2.70;99.90
13944;DHT22;7044;53.286;8.534;2024-01-11T07:15:08;-2.80;99.90
13944;DHT22;7044;53.286;8.534;2024-01-11T07:17:36;-2.70;99.90
13944;DHT22;7044;53.286;8.534;2024-01-11T07:20:03;-2.80;99.90
13944;DHT22;7044;53.286;8.534;2024-01-11T07:22:30;-3.00;99.90
13944;DHT22;7044;53.286;8.534;2024-01-11T07:24:57;-2.80;99.90
13944;DHT22;7044;53.286;8.534;2024-01-11T07:27:24;-2.30;99.90
13944;DHT22;7044;53.286;8.534;2024-01-11T07:29:51;-2.70;99.90
13944;DHT22;7044;53.286;8.534;2024-01-11T07:32:18;-2.70;99.90
13944;DHT22;7044;53.286;8.534;2024-01-11T07:34:46;-2.80;99.90
13944;DHT22;7044;53.286;8.534;2024-01-11T07:37:13;-2.80;99.90
13944;DHT22;7044;53.286;8.534;2024-01-11T07:39:39;-2.70;99.90
13944;DHT22;7044;53.286;8.534;2024-01-11T07:42:06;-2.70;99.90
13944;DHT22;7044;53.286;8.534;2024-01-11T07:44:33;-2.60;99.90
13944;DHT22;7044;53.286;8.534;2024-01-11T07:47:00;-2.70;99.90
13944;DHT22;7044;53.286;8.534;2024-01-11T07:49:27;-2.60;99.90
13944;DHT22;7044;53.286;8.534;2024-01-11T07:51:55;-2.60;99.90
13944;DHT22;7044;53.286;8.534;2024-01-11T07:54:22;-2.40;99.90
13944;DHT22;7044;53.286;8.534;2024-01-11T07:56:48;-2.70;99.90
13944;DHT22;7044;53.286;8.534;2024-01-11T07:59:15;-2.60;99.90
13944;DHT22;7044;53.286;8.534;2024-01-11T08:01:42;-2.60;99.90
13944;DHT22;7044;53.286;8.534;2024-01-11T08:04:09;-2.50;99.90
13944;DHT22;7044;53.286;8.534;2024-01-11T08:06:36;-2.50;99.90
13944;DHT22;7044;53.286;8.534;2024-01-11T08:09:04;-2.60;99.90
13944;DHT22;7044;53.286;8.534;2024-01-11T08:11:31;-2.40;99.90
13944;DHT22;7044;53.286;8.534;2024-01-11T08:13:58;-2.30;99.90
13944;DHT22;7044;53.286;8.534;2024-01-11T08:16:25;-2.40;99.90
13944;DHT22;7044;53.286;8.534;2024-01-11T08:18:52;-2.50;99.90
13944;DHT22;7044;53.286;8.534;2024-01-11T08:21:19;-2.50;99.90
13944;DHT22;7044;53.286;8.534;2024-01-11T08:23:46;-2.40;99.90
13944;DHT22;7044;53.286;8.534;2024-01-11T08:26:16;-2.40;99.90
13944;DHT22;7044;53.286;8.534;2024-01-11T08:28:44;-2.30;99.90
13944;DHT22;7044;53.286;8.534;2024-01-11T08:31:11;-2.40;99.90
13944;DHT22;7044;53.286;8.534;2024-01-11T08:33:38;-2.70;99.90
13944;DHT22;7044;53.286;8.534;2024-01-11T08:36:05;-2.20;99.90
13944;DHT22;7044;53.286;8.534;2024-01-11T08:38:32;-2.20;99.90
13944;DHT22;7044;53.286;8.534;2024-01-11T08:40:59;-2.20;99.90
13944;DHT22;7044;53.286;8.534;2024-01-11T08:43:27;-2.10;99.90
13944;DHT22;7044;53.286;8.534;2024-01-11T08:45:54;-2.20;99.90
13944;DHT22;7044;53.286;8.534;2024-01-11T08:48:21;-2.10;99.90
13944;DHT22;7044;53.286;8.534;2024-01-11T08:50:48;-2.10;99.90
13944;DHT22;7044;53.286;8.534;2024-01-11T08:53:15;-2.10;99.90
13944;DHT22;7044;53.286;8.534;2024-01-11T08:55:42;-2.00;99.90
13944;DHT22;7044;53.286;8.534;2024-01-11T08:58:09;-2.00;99.90
13944;DHT22;7044;53.286;8.534;2024-01-11T09:00:38;-2.00;99.90
13944;DHT22;7044;53.286;8.534;2024-01-11T09:03:04;-1.90;99.90
13944;DHT22;7044;53.286;8.534;2024-01-11T09:05:31;-2.00;99.90
13944;DHT22;7044;53.286;8.534;2024-01-11T09:07:58;-2.00;99.90
13944;DHT22;7044;53.286;8.534;2024-01-11T09:10:25;-1.90;99.90
13944;DHT22;7044;53.286;8.534;2024-01-11T09:12:53;-2.00;99.90
13944;DHT22;7044;53.286;8.534;2024-01-11T09:15:20;-1.90;99.90
13944;DHT22;7044;53.286;8.534;2024-01-11T09:17:48;-1.90;99.90
13944;DHT22;7044;53.286;8.534;2024-01-11T09:20:15;-1.80;99.90
13944;DHT22;7044;53.286;8.534;2024-01-11T09:22:44;-1.80;99.90
13944;DHT22;7044;53.286;8.534;2024-01-11T09:25:11;-1.80;99.90
13944;DHT22;7044;53.286;8.534;2024-01-11T09:27:38;-1.70;99.90
13944;DHT22;7044;53.286;8.534;2024-01-11T09:30:06;-1.70;99.90
13944;DHT22;7044;53.286;8.534;2024-01-11T09:32:34;-1.60;99.90
13944;DHT22;7044;53.286;8.534;2024-01-11T09:35:04;-1.30;99.90
13944;DHT22;7044;53.286;8.534;2024-01-11T09:37:31;-1.60;99.90
13944;DHT22;7044;53.286;8.534;2024-01-11T09:39:58;-1.50;99.90
13944;DHT22;7044;53.286;8.534;2024-01-11T09:42:26;-1.60;99.90
13944;DHT22;7044;53.286;8.534;2024-01-11T09:44:54;-1.50;99.90
13944;DHT22;7044;53.286;8.534;2024-01-11T09:47:21;-1.50;99.90
13944;DHT22;7044;53.286;8.534;2024-01-11T09:49:49;-0.70;99.90
13944;DHT22;7044;53.286;8.534;2024-01-11T09:52:19;-0.30;99.90
13944;DHT22;7044;53.286;8.534;2024-01-11T09:54:47;-1.40;99.90
13944;DHT22;7044;53.286;8.534;2024-01-11T09:57:18;-1.40;99.90
13944;DHT22;7044;53.286;8.534;2024-01-11T09:59:49;-1.20;99.90
13944;DHT22;7044;53.286;8.534;2024-01-11T10:02:17;-1.30;99.90
13944;DHT22;7044;53.286;8.534;2024-01-11T10:04:45;-1.20;99.90
13944;DHT22;7044;53.286;8.534;2024-01-11T10:07:13;-1.20;99.90
13944;DHT22;7044;53.286;8.534;2024-01-11T10:09:42;-1.20;99.90
13944;DHT22;7044;53.286;8.534;2024-01-11T10:12:10;-1.10;99.90
13944;DHT22;7044;53.286;8.534;2024-01-11T10:14:36;-1.10;99.90
13944;DHT22;7044;53.286;8.534;2024-01-11T10:17:04;-1.20;99.90
13944;DHT22;7044;53.286;8.534;2024-01-11T10:19:31;-1.30;99.90
13944;DHT22;7044;53.286;8.534;2024-01-11T10:21:57;-1.70;99.90
13944;DHT22;7044;53.286;8.534;2024-01-11T10:24:25;-1.10;99.90
13944;DHT22;7044;53.286;8.534;2024-01-11T10:26:55;-1.00;99.90
13944;DHT22;7044;53.286;8.534;2024-01-11T10:29:22;-0.30;99.90
13944;DHT22;7044;53.286;8.534;2024-01-11T10:31:49;-1.00;99.90
13944;DHT22;7044;53.286;8.534;2024-01-11T10:34:17;-0.90;99.90
13944;DHT22;7044;53.286;8.534;2024-01-11T10:36:44;-0.90;99.90
13944;DHT22;7044;53.286;8.534;2024-01-11T10:39:11;-1.00;99.90
13944;DHT22;7044;53.286;8.534;2024-01-11T10:41:40;-0.90;99.90
13944;DHT22;7044;53.286;8.534;2024-01-11T10:44:15;-0.80;99.90
13944;DHT22;7044;53.286;8.534;2024-01-11T10:46:45;-0.90;99.90
13944;DHT22;7044;53.286;8.534;2024-01-11T10:49:16;-0.80;99.90
13944;DHT22;7044;53.286;8.534;2024-01-11T10:51:47;-0.70;99.90
13944;DHT22;7044;53.286;8.534;2024-01-11T10:54:17;-0.60;99.90
13944;DHT22;7044;53.286;8.534;2024-01-11T10:56:45;-0.70;99.90
13944;DHT22;7044;53.286;8.534;2024-01-11T10:59:15;-0.80;99.90
13944;DHT22;7044;53.286;8.534;2024-01-11T11:01:43;-0.60;99.90
13944;DHT22;7044;53.286;8.534;2024-01-11T11:04:11;-0.60;99.90
13944;DHT22;7044;53.286;8.534;2024-01-11T11:06:38;-0.50;99.90
13944;DHT22;7044;53.286;8.534;2024-01-11T11:09:06;-0.60;99.90
13944;DHT22;7044;53.286;8.534;2024-01-11T11:11:34;-0.40;99.90
13944;DHT22;7044;53.286;8.534;2024-01-11T11:14:01;-1.50;99.90
13944;DHT22;7044;53.286;8.534;2024-01-11T11:16:31;-0.60;99.90
13944;DHT22;7044;53.286;8.534;2024-01-11T11:18:58;-0.40;99.90
13944;DHT22;7044;53.286;8.534;2024-01-11T11:21:25;-0.50;99.90
13944;DHT22;7044;53.286;8.534;2024-01-11T11:23:55;-0.50;99.90
13944;DHT22;7044;53.286;8.534;2024-01-11T11:26:22;-0.20;99.90
13944;DHT22;7044;53.286;8.534;2024-01-11T11:28:49;-0.30;99.90
13944;DHT22;7044;53.286;8.534;2024-01-11T11:31:36;-0.30;99.90
13944;DHT22;7044;53.286;8.534;2024-01-11T11:34:04;-0.30;99.90
13944;DHT22;7044;53.286;8.534;2024-01-11T11:36:33;-0.20;99.90
13944;DHT22;7044;53.286;8.534;2024-01-11T11:39:01;-0.20;99.90
13944;DHT22;7044;53.286;8.534;2024-01-11T11:41:30;-0.20;99.90
13944;DHT22;7044;53.286;8.534;2024-01-11T11:44:00;-0.20;99.90
13944;DHT22;7044;53.286;8.534;2024-01-11T11:46:27;-0.10;99.90
13944;DHT22;7044;53.286;8.534;2024-01-11T11:48:56;-0.10;99.90
13944;DHT22;7044;53.286;8.534;2024-01-11T11:51:23;-0.10;99.90
13944;DHT22;7044;53.286;8.534;2024-01-11T11:53:52;1.20;99.90
13944;DHT22;7044;53.286;8.534;2024-01-11T11:56:20;0.00;99.90
13944;DHT22;7044;53.286;8.534;2024-01-11T11:58:48;0.10;99.90
13944;DHT22;7044;53.286;8.534;2024-01-11T12:01:17;0.00;99.90
13944;DHT22;7044;53.286;8.534;2024-01-11T12:03:45;0.10;99.90
13944;DHT22;7044;53.286;8.534;2024-01-11T12:06:17;0.20;99.90
13944;DHT22;7044;53.286;8.534;2024-01-11T12:08:44;0.20;99.90
13944;DHT22;7044;53.286;8.534;2024-01-11T12:11:15;0.10;99.90
13944;DHT22;7044;53.286;8.534;2024-01-11T12:13:42;0.10;99.90
13944;DHT22;7044;53.286;8.534;2024-01-11T12:16:10;0.10;99.90
13944;DHT22;7044;53.286;8.534;2024-01-11T12:18:37;0.00;99.90
13944;DHT22;7044;53.286;8.534;2024-01-11T12:21:04;0.10;99.90
13944;DHT22;7044;53.286;8.534;2024-01-11T12:23:33;0.10;99.90
13944;DHT22;7044;53.286;8.534;2024-01-11T12:26:01;0.00;99.90
13944;DHT22;7044;53.286;8.534;2024-01-11T12:28:31;0.00;99.90
13944;DHT22;7044;53.286;8.534;2024-01-11T12:30:58;0.10;99.90
13944;DHT22;7044;53.286;8.534;2024-01-11T12:33:26;0.40;99.90
13944;DHT22;7044;53.286;8.534;2024-01-11T12:35:54;0.20;99.90
13944;DHT22;7044;53.286;8.534;2024-01-11T12:38:21;0.10;99.90
13944;DHT22;7044;53.286;8.534;2024-01-11T12:40:49;0.50;99.90
13944;DHT22;7044;53.286;8.534;2024-01-11T12:43:16;0.20;99.90
13944;DHT22;7044;53.286;8.534;2024-01-11T12:45:43;0.10;99.90
13944;DHT22;7044;53.286;8.534;2024-01-11T12:48:10;0.30;99.90
13944;DHT22;7044;53.286;8.534;2024-01-11T12:50:39;0.20;99.90
13944;DHT22;7044;53.286;8.534;2024-01-11T12:53:08;0.20;99.90
13944;DHT22;7044;53.286;8.534;2024-01-11T12:55:35;0.30;99.90
13944;DHT22;7044;53.286;8.534;2024-01-11T12:58:07;0.20;99.90
13944;DHT22;7044;53.286;8.534;2024-01-11T13:00:35;-0.10;99.90
13944;DHT22;7044;53.286;8.534;2024-01-11T13:03:04;0.30;99.90
13944;DHT22;7044;53.286;8.534;2024-01-11T13:05:31;0.40;99.90
13944;DHT22;7044;53.286;8.534;2024-01-11T13:08:01;0.30;99.90
13944;DHT22;7044;53.286;8.534;2024-01-11T13:10:29;0.60;99.90
13944;DHT22;7044;53.286;8.534;2024-01-11T13:12:58;0.30;99.90
13944;DHT22;7044;53.286;8.534;2024-01-11T13:15:26;0.30;99.90
13944;DHT22;7044;53.286;8.534;2024-01-11T13:17:54;0.50;99.90
13944;DHT22;7044;53.286;8.534;2024-01-11T13:20:21;0.40;99.90
13944;DHT22;7044;53.286;8.534;2024-01-11T13:22:49;0.50;99.90
13944;DHT22;7044;53.286;8.534;2024-01-11T13:25:16;0.40;99.90
13944;DHT22;7044;53.286;8.534;2024-01-11T13:27:44;0.50;99.90
13944;DHT22;7044;53.286;8.534;2024-01-11T13:30:11;0.40;99.90
13944;DHT22;7044;53.286;8.534;2024-01-11T13:32:40;0.50;99.90
13944;DHT22;7044;53.286;8.534;2024-01-11T13:35:07;0.50;99.90
13944;DHT22;7044;53.286;8.534;2024-01-11T13:37:34;0.50;99.90
13944;DHT22;7044;53.286;8.534;2024-01-11T13:40:01;0.50;99.90
13944;DHT22;7044;53.286;8.534;2024-01-11T13:42:29;0.50;99.90
13944;DHT22;7044;53.286;8.534;2024-01-11T13:44:56;0.50;99.90
13944;DHT22;7044;53.286;8.534;2024-01-11T13:47:22;0.50;99.90
13944;DHT22;7044;53.286;8.534;2024-01-11T13:49:51;0.70;99.90
13944;DHT22;7044;53.286;8.534;2024-01-11T13:52:18;1.30;99.90
13944;DHT22;7044;53.286;8.534;2024-01-11T13:54:44;1.60;99.90
13944;DHT22;7044;53.286;8.534;2024-01-11T13:57:11;1.40;99.90
13944;DHT22;7044;53.286;8.534;2024-01-11T13:59:38;1.20;99.90
13944;DHT22;7044;53.286;8.534;2024-01-11T14:02:05;1.20;99.90
13944;DHT22;7044;53.286;8.534;2024-01-11T14:04:32;1.00;99.90
13944;DHT22;7044;53.286;8.534;2024-01-11T14:07:01;0.90;99.90
13944;DHT22;7044;53.286;8.534;2024-01-11T14:09:29;0.90;99.90
13944;DHT22;7044;53.286;8.534;2024-01-11T14:11:55;0.80;99.90
13944;DHT22;7044;53.286;8.534;2024-01-11T14:14:22;0.80;99.90
13944;DHT22;7044;53.286;8.534;2024-01-11T14:16:49;0.80;99.90
13944;DHT22;7044;53.286;8.534;2024-01-11T14:19:17;0.80;99.90
13944;DHT22;7044;53.286;8.534;2024-01-11T14:21:44;0.70;99.90
13944;DHT22;7044;53.286;8.534;2024-01-11T14:24:12;0.70;99.90
13944;DHT22;7044;53.286;8.534;2024-01-11T14:26:39;0.90;99.90
13944;DHT22;7044;53.286;8.534;2024-01-11T14:29:05;0.80;99.90
13944;DHT22;7044;53.286;8.534;2024-01-11T14:31:32;0.80;99.90
13944;DHT22;7044;53.286;8.534;2024-01-11T14:33:59;0.70;99.90
13944;DHT22;7044;53.286;8.534;2024-01-11T14:36:26;0.80;99.90
13944;DHT22;7044;53.286;8.534;2024-01-11T14:38:52;0.90;99.90
13944;DHT22;7044;53.286;8.534;2024-01-11T14:41:21;0.80;99.90
13944;DHT22;7044;53.286;8.534;2024-01-11T14:43:47;0.90;99.90
13944;DHT22;7044;53.286;8.534;2024-01-11T14:46:14;0.90;99.90
13944;DHT22;7044;53.286;8.534;2024-01-11T14:48:42;0.90;99.90
13944;DHT22;7044;53.286;8.534;2024-01-11T14:51:09;1.00;99.90
13944;DHT22;7044;53.286;8.534;2024-01-11T14:53:36;0.90;99.90
13944;DHT22;7044;53.286;8.534;2024-01-11T14:56:03;1.00;99.90
13944;DHT22;7044;53.286;8.534;2024-01-11T14:58:31;0.80;99.90
13944;DHT22;7044;53.286;8.534;2024-01-11T15:00:58;0.80;99.90
13944;DHT22;7044;53.286;8.534;2024-01-11T15:03:25;0.80;99.90
13944;DHT22;7044;53.286;8.534;2024-01-11T15:05:52;0.80;99.90
13944;DHT22;7044;53.286;8.534;2024-01-11T15:08:19;0.90;99.90
13944;DHT22;7044;53.286;8.534;2024-01-11T15:10:46;0.90;99.90
13944;DHT22;7044;53.286;8.534;2024-01-11T15:13:13;0.90;99.90
13944;DHT22;7044;53.286;8.534;2024-01-11T15:15:41;0.90;99.90
13944;DHT22;7044;53.286;8.534;2024-01-11T15:18:08;0.90;99.90
13944;DHT22;7044;53.286;8.534;2024-01-11T15:20:35;0.80;99.90
13944;DHT22;7044;53.286;8.534;2024-01-11T15:23:01;0.90;99.90
13944;DHT22;7044;53.286;8.534;2024-01-11T15:25:30;1.00;99.90
13944;DHT22;7044;53.286;8.534;2024-01-11T15:27:57;0.90;99.90
13944;DHT22;7044;53.286;8.534;2024-01-11T15:30:24;1.00;99.90
13944;DHT22;7044;53.286;8.534;2024-01-11T15:32:52;1.00;99.90
13944;DHT22;7044;53.286;8.534;2024-01-11T15:35:19;1.70;99.90
13944;DHT22;7044;53.286;8.534;2024-01-11T15:37:46;1.00;99.90
13944;DHT22;7044;53.286;8.534;2024-01-11T15:40:14;1.70;99.90
13944;DHT22;7044;53.286;8.534;2024-01-11T15:42:40;0.20;99.90
13944;DHT22;7044;53.286;8.534;2024-01-11T15:45:08;1.50;99.90
13944;DHT22;7044;53.286;8.534;2024-01-11T15:47:36;1.10;99.90
13944;DHT22;7044;53.286;8.534;2024-01-11T15:50:06;1.00;99.90
13944;DHT22;7044;53.286;8.534;2024-01-11T15:52:36;1.00;99.90
13944;DHT22;7044;53.286;8.534;2024-01-11T15:55:03;1.10;99.90
13944;DHT22;7044;53.286;8.534;2024-01-11T15:57:30;0.90;99.90
13944;DHT22;7044;53.286;8.534;2024-01-11T15:59:57;0.80;99.90
13944;DHT22;7044;53.286;8.534;2024-01-11T16:02:23;0.90;99.90
13944;DHT22;7044;53.286;8.534;2024-01-11T16:04:50;0.80;99.90
13944;DHT22;7044;53.286;8.534;2024-01-11T16:07:18;0.80;99.90
13944;DHT22;7044;53.286;8.534;2024-01-11T16:09:46;0.90;99.90
13944;DHT22;7044;53.286;8.534;2024-01-11T16:12:13;1.00;99.90
13944;DHT22;7044;53.286;8.534;2024-01-11T16:14:43;1.00;99.90